sensor_id;sensor_type;location;lat;lon;timestamp;temperature;humidity
32173;DHT22;18679;45.190;5.722;2022-09-28T00:01:18;16.90;60.00
32173;DHT22;18679;45.190;5.722;2022-09-28T00:04:20;16.80;60.10
32173;DHT22;18679;45.190;5.722;2022-09-28T00:07:21;16.80;60.20
32173;DHT22;18679;45.190;5.722;2022-09-28T00:10:22;16.70;60.20
32173;DHT22;18679;45.190;5.722;2022-09-28T00:13:24;16.70;60.30
32173;DHT22;18679;45.190;5.722;2022-09-28T00:16:31;16.70;60.30
32173;DHT22;18679;45.190;5.722;2022-09-28T00:19:32;16.70;60.50
32173;DHT22;18679;45.190;5.722;2022-09-28T00:22:33;16.70;60.60
32173;DHT22;18679;45.190;5.722;2022-09-28T00:25:34;16.70;60.60
32173;DHT22;18679;45.190;5.722;2022-09-28T00:28:36;16.70;60.70
32173;DHT22;18679;45.190;5.722;2022-09-28T00:31:37;16.70;60.90
32173;DHT22;18679;45.190;5.722;2022-09-28T00:34:40;16.70;61.00
32173;DHT22;18679;45.190;5.722;2022-09-28T00:37:42;16.70;61.10
32173;DHT22;18679;45.190;5.722;2022-09-28T00:40:43;16.70;61.30
32173;DHT22;18679;45.190;5.722;2022-09-28T00:43:44;16.70;61.40
32173;DHT22;18679;45.190;5.722;2022-09-28T00:46:46;16.70;61.20
32173;DHT22;18679;45.190;5.722;2022-09-28T00:49:58;16.70;60.70
32173;DHT22;18679;45.190;5.722;2022-09-28T00:53:13;16.70;60.40
32173;DHT22;18679;45.190;5.722;2022-09-28T00:56:20;16.60;60.20
32173;DHT22;18679;45.190;5.722;2022-09-28T00:59:23;16.60;60.30
32173;DHT22;18679;45.190;5.722;2022-09-28T01:02:25;16.60;60.50
32173;DHT22;18679;45.190;5.722;2022-09-28T01:05:26;16.50;60.50
32173;DHT22;18679;45.190;5.722;2022-09-28T01:08:29;16.50;60.70
32173;DHT22;18679;45.190;5.722;2022-09-28T01:11:34;16.50;60.70
32173;DHT22;18679;45.190;5.722;2022-09-28T01:14:38;16.60;60.80
32173;DHT22;18679;45.190;5.722;2022-09-28T01:17:49;16.60;60.60
32173;DHT22;18679;45.190;5.722;2022-09-28T01:21:14;16.60;60.50
32173;DHT22;18679;45.190;5.722;2022-09-28T01:31:02;16.60;60.50
32173;DHT22;18679;45.190;5.722;2022-09-28T01:34:16;16.60;60.10
32173;DHT22;18679;45.190;5.722;2022-09-28T01:37:20;16.60;60.30
32173;DHT22;18679;45.190;5.722;2022-09-28T01:40:25;16.60;60.10
32173;DHT22;18679;45.190;5.722;2022-09-28T01:43:28;16.50;60.00
32173;DHT22;18679;45.190;5.722;2022-09-28T01:46:38;16.50;60.10
32173;DHT22;18679;45.190;5.722;2022-09-28T01:49:45;16.50;60.00
32173;DHT22;18679;45.190;5.722;2022-09-28T01:52:52;16.50;60.10
32173;DHT22;18679;45.190;5.722;2022-09-28T01:55:58;16.50;60.00
32173;DHT22;18679;45.190;5.722;2022-09-28T01:59:08;16.50;60.00
32173;DHT22;18679;45.190;5.722;2022-09-28T02:02:16;16.50;60.10
32173;DHT22;18679;45.190;5.722;2022-09-28T02:05:28;16.40;60.00
32173;DHT22;18679;45.190;5.722;2022-09-28T02:08:39;16.40;60.30
32173;DHT22;18679;45.190;5.722;2022-09-28T02:11:44;16.40;60.50
32173;DHT22;18679;45.190;5.722;2022-09-28T02:14:48;16.40;60.70
32173;DHT22;18679;45.190;5.722;2022-09-28T02:17:54;16.40;60.80
32173;DHT22;18679;45.190;5.722;2022-09-28T02:20:59;16.40;60.90
32173;DHT22;18679;45.190;5.722;2022-09-28T02:24:07;16.30;60.90
32173;DHT22;18679;45.190;5.722;2022-09-28T02:27:11;16.30;61.20
32173;DHT22;18679;45.190;5.722;2022-09-28T02:30:14;16.20;61.30
32173;DHT22;18679;45.190;5.722;2022-09-28T02:33:22;16.20;61.40
32173;DHT22;18679;45.190;5.722;2022-09-28T02:36:25;16.10;61.70
32173;DHT22;18679;45.190;5.722;2022-09-28T02:39:27;16.10;61.90
32173;DHT22;18679;45.190;5.722;2022-09-28T02:49:12;15.90;62.60
32173;DHT22;18679;45.190;5.722;2022-09-28T02:59:05;15.90;62.90
32173;DHT22;18679;45.190;5.722;2022-09-28T03:05:46;15.90;63.30
32173;DHT22;18679;45.190;5.722;2022-09-28T03:09:23;16.00;63.40
32173;DHT22;18679;45.190;5.722;2022-09-28T03:12:27;16.10;63.40
32173;DHT22;18679;45.190;5.722;2022-09-28T03:15:32;16.10;63.10
32173;DHT22;18679;45.190;5.722;2022-09-28T03:18:34;16.10;63.10
32173;DHT22;18679;45.190;5.722;2022-09-28T03:21:35;16.10;62.90
32173;DHT22;18679;45.190;5.722;2022-09-28T03:24:36;16.20;63.00
32173;DHT22;18679;45.190;5.722;2022-09-28T03:27:38;16.20;62.90
32173;DHT22;18679;45.190;5.722;2022-09-28T03:30:40;16.20;62.90
32173;DHT22;18679;45.190;5.722;2022-09-28T03:33:42;16.30;62.90
32173;DHT22;18679;45.190;5.722;2022-09-28T03:36:43;16.30;62.70
32173;DHT22;18679;45.190;5.722;2022-09-28T03:39:44;16.30;62.50
32173;DHT22;18679;45.190;5.722;2022-09-28T03:42:45;16.30;62.40
32173;DHT22;18679;45.190;5.722;2022-09-28T03:45:57;16.30;62.30
32173;DHT22;18679;45.190;5.722;2022-09-28T03:48:59;16.40;62.20
32173;DHT22;18679;45.190;5.722;2022-09-28T03:52:00;16.40;62.10
32173;DHT22;18679;45.190;5.722;2022-09-28T03:55:01;16.30;61.90
32173;DHT22;18679;45.190;5.722;2022-09-28T03:58:02;16.30;61.90
32173;DHT22;18679;45.190;5.722;2022-09-28T04:01:06;16.30;62.00
32173;DHT22;18679;45.190;5.722;2022-09-28T04:04:11;16.40;62.00
32173;DHT22;18679;45.190;5.722;2022-09-28T04:07:12;16.40;61.90
32173;DHT22;18679;45.190;5.722;2022-09-28T04:10:13;16.40;61.70
32173;DHT22;18679;45.190;5.722;2022-09-28T04:13:14;16.40;61.80
32173;DHT22;18679;45.190;5.722;2022-09-28T04:16:16;16.30;61.90
32173;DHT22;18679;45.190;5.722;2022-09-28T04:19:24;16.20;62.20
32173;DHT22;18679;45.190;5.722;2022-09-28T04:22:52;16.20;62.50
32173;DHT22;18679;45.190;5.722;2022-09-28T04:25:53;16.10;62.70
32173;DHT22;18679;45.190;5.722;2022-09-28T04:28:54;16.10;63.00
32173;DHT22;18679;45.190;5.722;2022-09-28T04:32:15;16.10;63.20
32173;DHT22;18679;45.190;5.722;2022-09-28T04:35:17;16.10;63.40
32173;DHT22;18679;45.190;5.722;2022-09-28T04:38:18;16.00;63.50
32173;DHT22;18679;45.190;5.722;2022-09-28T04:41:20;16.00;63.60
32173;DHT22;18679;45.190;5.722;2022-09-28T04:44:23;16.10;63.70
32173;DHT22;18679;45.190;5.722;2022-09-28T04:47:30;16.00;63.50
32173;DHT22;18679;45.190;5.722;2022-09-28T04:50:59;16.00;63.70
32173;DHT22;18679;45.190;5.722;2022-09-28T04:54:00;16.10;63.90
32173;DHT22;18679;45.190;5.722;2022-09-28T04:57:01;16.10;63.90
32173;DHT22;18679;45.190;5.722;2022-09-28T05:00:04;16.10;63.90
32173;DHT22;18679;45.190;5.722;2022-09-28T05:03:08;16.10;63.90
32173;DHT22;18679;45.190;5.722;2022-09-28T05:06:28;16.10;64.00
32173;DHT22;18679;45.190;5.722;2022-09-28T05:09:38;16.10;64.00
32173;DHT22;18679;45.190;5.722;2022-09-28T05:12:39;16.10;64.10
32173;DHT22;18679;45.190;5.722;2022-09-28T05:15:40;16.10;64.10
32173;DHT22;18679;45.190;5.722;2022-09-28T05:18:42;16.10;64.10
32173;DHT22;18679;45.190;5.722;2022-09-28T05:21:44;16.10;64.10
32173;DHT22;18679;45.190;5.722;2022-09-28T05:24:45;16.10;64.10
32173;DHT22;18679;45.190;5.722;2022-09-28T05:27:47;16.10;64.10
32173;DHT22;18679;45.190;5.722;2022-09-28T05:31:07;16.10;64.20
32173;DHT22;18679;45.190;5.722;2022-09-28T05:34:31;16.10;64.30
32173;DHT22;18679;45.190;5.722;2022-09-28T05:37:32;16.10;64.40
32173;DHT22;18679;45.190;5.722;2022-09-28T05:40:34;16.10;64.60
32173;DHT22;18679;45.190;5.722;2022-09-28T05:43:35;16.10;64.60
32173;DHT22;18679;45.190;5.722;2022-09-28T05:46:38;16.00;64.60
32173;DHT22;18679;45.190;5.722;2022-09-28T05:49:39;16.10;64.60
32173;DHT22;18679;45.190;5.722;2022-09-28T05:52:42;16.10;64.70
32173;DHT22;18679;45.190;5.722;2022-09-28T05:55:44;16.10;64.90
32173;DHT22;18679;45.190;5.722;2022-09-28T05:58:45;16.10;65.00
32173;DHT22;18679;45.190;5.722;2022-09-28T06:01:47;16.10;65.10
32173;DHT22;18679;45.190;5.722;2022-09-28T06:04:49;16.10;65.10
32173;DHT22;18679;45.190;5.722;2022-09-28T06:07:51;16.10;65.10
32173;DHT22;18679;45.190;5.722;2022-09-28T06:10:52;16.20;65.10
32173;DHT22;18679;45.190;5.722;2022-09-28T06:13:54;16.20;64.90
32173;DHT22;18679;45.190;5.722;2022-09-28T06:17:00;16.10;64.90
32173;DHT22;18679;45.190;5.722;2022-09-28T06:20:01;16.20;64.90
32173;DHT22;18679;45.190;5.722;2022-09-28T06:23:21;16.20;64.80
32173;DHT22;18679;45.190;5.722;2022-09-28T06:26:22;16.20;65.00
32173;DHT22;18679;45.190;5.722;2022-09-28T06:29:23;16.20;65.10
32173;DHT22;18679;45.190;5.722;2022-09-28T06:32:24;16.20;65.20
32173;DHT22;18679;45.190;5.722;2022-09-28T06:35:28;16.20;65.20
32173;DHT22;18679;45.190;5.722;2022-09-28T06:38:29;16.30;65.30
32173;DHT22;18679;45.190;5.722;2022-09-28T06:41:31;16.30;65.30
32173;DHT22;18679;45.190;5.722;2022-09-28T06:44:34;16.30;65.10
32173;DHT22;18679;45.190;5.722;2022-09-28T06:47:41;16.30;65.00
32173;DHT22;18679;45.190;5.722;2022-09-28T06:50:50;16.30;65.00
32173;DHT22;18679;45.190;5.722;2022-09-28T06:54:20;16.40;65.10
32173;DHT22;18679;45.190;5.722;2022-09-28T06:57:36;16.50;65.00
32173;DHT22;18679;45.190;5.722;2022-09-28T07:00:38;16.50;65.00
32173;DHT22;18679;45.190;5.722;2022-09-28T07:03:40;16.60;64.90
32173;DHT22;18679;45.190;5.722;2022-09-28T07:06:57;16.60;64.90
32173;DHT22;18679;45.190;5.722;2022-09-28T07:10:17;16.70;64.80
32173;DHT22;18679;45.190;5.722;2022-09-28T07:13:37;16.70;64.80
32173;DHT22;18679;45.190;5.722;2022-09-28T07:16:41;16.70;64.80
32173;DHT22;18679;45.190;5.722;2022-09-28T07:19:42;16.80;64.80
32173;DHT22;18679;45.190;5.722;2022-09-28T07:22:44;16.80;64.60
32173;DHT22;18679;45.190;5.722;2022-09-28T07:25:52;16.90;64.60
32173;DHT22;18679;45.190;5.722;2022-09-28T07:29:04;16.90;64.50
32173;DHT22;18679;45.190;5.722;2022-09-28T07:32:05;17.00;64.40
32173;DHT22;18679;45.190;5.722;2022-09-28T07:35:31;17.10;64.30
32173;DHT22;18679;45.190;5.722;2022-09-28T07:38:36;17.20;64.00
32173;DHT22;18679;45.190;5.722;2022-09-28T07:41:38;17.20;63.60
32173;DHT22;18679;45.190;5.722;2022-09-28T07:44:41;17.30;63.40
32173;DHT22;18679;45.190;5.722;2022-09-28T07:47:42;17.30;63.30
32173;DHT22;18679;45.190;5.722;2022-09-28T07:50:54;17.40;63.10
32173;DHT22;18679;45.190;5.722;2022-09-28T07:54:25;17.40;62.80
32173;DHT22;18679;45.190;5.722;2022-09-28T07:57:45;17.50;62.80
32173;DHT22;18679;45.190;5.722;2022-09-28T08:01:11;17.50;62.60
32173;DHT22;18679;45.190;5.722;2022-09-28T08:04:17;17.60;62.40
32173;DHT22;18679;45.190;5.722;2022-09-28T08:07:20;17.70;62.10
32173;DHT22;18679;45.190;5.722;2022-09-28T08:10:27;17.70;61.80
32173;DHT22;18679;45.190;5.722;2022-09-28T08:13:37;17.80;61.80
32173;DHT22;18679;45.190;5.722;2022-09-28T08:16:55;17.80;61.60
32173;DHT22;18679;45.190;5.722;2022-09-28T08:20:09;17.90;61.40
32173;DHT22;18679;45.190;5.722;2022-09-28T08:23:29;18.00;61.10
32173;DHT22;18679;45.190;5.722;2022-09-28T08:26:30;18.20;61.10
32173;DHT22;18679;45.190;5.722;2022-09-28T08:29:32;18.40;60.70
32173;DHT22;18679;45.190;5.722;2022-09-28T08:32:53;18.50;60.30
32173;DHT22;18679;45.190;5.722;2022-09-28T08:36:12;18.50;59.90
32173;DHT22;18679;45.190;5.722;2022-09-28T08:39:52;18.40;59.90
32173;DHT22;18679;45.190;5.722;2022-09-28T08:47:08;18.30;60.40
32173;DHT22;18679;45.190;5.722;2022-09-28T08:50:52;18.30;60.30
32173;DHT22;18679;45.190;5.722;2022-09-28T08:54:27;18.30;60.10
32173;DHT22;18679;45.190;5.722;2022-09-28T08:57:47;18.20;60.40
32173;DHT22;18679;45.190;5.722;2022-09-28T09:00:52;18.30;60.40
32173;DHT22;18679;45.190;5.722;2022-09-28T09:03:54;18.30;60.40
32173;DHT22;18679;45.190;5.722;2022-09-28T09:07:35;18.30;60.40
32173;DHT22;18679;45.190;5.722;2022-09-28T09:11:01;18.40;60.30
32173;DHT22;18679;45.190;5.722;2022-09-28T09:14:50;18.50;60.30
32173;DHT22;18679;45.190;5.722;2022-09-28T09:18:05;18.50;60.30
32173;DHT22;18679;45.190;5.722;2022-09-28T09:31:42;19.20;59.30
32173;DHT22;18679;45.190;5.722;2022-09-28T09:35:12;19.40;58.90
32173;DHT22;18679;45.190;5.722;2022-09-28T09:53:18;19.80;58.20
32173;DHT22;18679;45.190;5.722;2022-09-28T09:56:51;19.70;58.00
32173;DHT22;18679;45.190;5.722;2022-09-28T10:00:14;19.70;58.20
32173;DHT22;18679;45.190;5.722;2022-09-28T10:03:27;19.60;58.20
32173;DHT22;18679;45.190;5.722;2022-09-28T10:06:41;19.50;58.30
32173;DHT22;18679;45.190;5.722;2022-09-28T10:09:44;19.50;58.40
32173;DHT22;18679;45.190;5.722;2022-09-28T10:13:07;19.50;58.40
32173;DHT22;18679;45.190;5.722;2022-09-28T10:16:10;19.60;58.40
32173;DHT22;18679;45.190;5.722;2022-09-28T10:19:30;19.60;58.40
32173;DHT22;18679;45.190;5.722;2022-09-28T10:22:51;19.60;58.40
32173;DHT22;18679;45.190;5.722;2022-09-28T10:26:08;19.50;58.50
32173;DHT22;18679;45.190;5.722;2022-09-28T10:29:18;19.50;58.80
32173;DHT22;18679;45.190;5.722;2022-09-28T10:32:36;19.30;59.00
32173;DHT22;18679;45.190;5.722;2022-09-28T10:35:40;19.30;59.50
32173;DHT22;18679;45.190;5.722;2022-09-28T10:38:46;19.20;59.60
32173;DHT22;18679;45.190;5.722;2022-09-28T10:42:06;19.10;59.70
32173;DHT22;18679;45.190;5.722;2022-09-28T10:45:20;19.10;59.90
32173;DHT22;18679;45.190;5.722;2022-09-28T10:48:22;19.10;60.30
32173;DHT22;18679;45.190;5.722;2022-09-28T10:51:42;19.10;60.50
32173;DHT22;18679;45.190;5.722;2022-09-28T10:54:52;19.10;60.80
32173;DHT22;18679;45.190;5.722;2022-09-28T10:57:55;19.20;60.80
32173;DHT22;18679;45.190;5.722;2022-09-28T11:01:01;19.20;60.90
32173;DHT22;18679;45.190;5.722;2022-09-28T11:04:05;19.20;61.00
32173;DHT22;18679;45.190;5.722;2022-09-28T11:07:18;19.30;60.90
32173;DHT22;18679;45.190;5.722;2022-09-28T11:10:22;19.40;60.90
32173;DHT22;18679;45.190;5.722;2022-09-28T11:13:28;19.40;61.10
32173;DHT22;18679;45.190;5.722;2022-09-28T11:16:37;19.40;61.30
32173;DHT22;18679;45.190;5.722;2022-09-28T11:19:39;19.50;61.40
32173;DHT22;18679;45.190;5.722;2022-09-28T11:22:40;19.60;61.10
32173;DHT22;18679;45.190;5.722;2022-09-28T11:25:58;19.60;61.10
32173;DHT22;18679;45.190;5.722;2022-09-28T11:29:02;19.70;61.50
32173;DHT22;18679;45.190;5.722;2022-09-28T11:32:28;19.80;61.60
32173;DHT22;18679;45.190;5.722;2022-09-28T11:49:02;19.90;61.90
32173;DHT22;18679;45.190;5.722;2022-09-28T11:58:34;19.90;62.30
32173;DHT22;18679;45.190;5.722;2022-09-28T12:01:42;19.80;62.20
32173;DHT22;18679;45.190;5.722;2022-09-28T12:06:02;19.80;62.60
32173;DHT22;18679;45.190;5.722;2022-09-28T12:08:35;19.80;62.80
32173;DHT22;18679;45.190;5.722;2022-09-28T12:11:43;19.70;63.00
32173;DHT22;18679;45.190;5.722;2022-09-28T12:14:54;19.80;63.10
32173;DHT22;18679;45.190;5.722;2022-09-28T12:18:16;19.90;62.90
32173;DHT22;18679;45.190;5.722;2022-09-28T12:21:47;19.90;62.60
32173;DHT22;18679;45.190;5.722;2022-09-28T12:24:54;20.00;62.40
32173;DHT22;18679;45.190;5.722;2022-09-28T12:28:00;20.20;62.30
32173;DHT22;18679;45.190;5.722;2022-09-28T12:31:27;20.30;62.10
32173;DHT22;18679;45.190;5.722;2022-09-28T12:34:28;20.40;62.10
32173;DHT22;18679;45.190;5.722;2022-09-28T12:37:36;20.60;61.70
32173;DHT22;18679;45.190;5.722;2022-09-28T12:41:13;20.60;61.40
32173;DHT22;18679;45.190;5.722;2022-09-28T12:48:01;21.10;61.30
32173;DHT22;18679;45.190;5.722;2022-09-28T13:18:29;23.20;56.50
32173;DHT22;18679;45.190;5.722;2022-09-28T13:21:56;23.00;56.20
32173;DHT22;18679;45.190;5.722;2022-09-28T13:25:03;22.80;56.70
32173;DHT22;18679;45.190;5.722;2022-09-28T13:28:10;22.70;57.00
32173;DHT22;18679;45.190;5.722;2022-09-28T13:31:18;22.60;57.10
32173;DHT22;18679;45.190;5.722;2022-09-28T13:34:32;22.50;57.20
32173;DHT22;18679;45.190;5.722;2022-09-28T13:37:33;22.50;57.20
32173;DHT22;18679;45.190;5.722;2022-09-28T13:44:10;22.50;57.20
32173;DHT22;18679;45.190;5.722;2022-09-28T13:57:43;22.70;56.20
32173;DHT22;18679;45.190;5.722;2022-09-28T14:00:55;22.60;56.30
32173;DHT22;18679;45.190;5.722;2022-09-28T14:04:19;22.50;56.30
32173;DHT22;18679;45.190;5.722;2022-09-28T14:08:09;22.50;56.70
32173;DHT22;18679;45.190;5.722;2022-09-28T14:11:39;22.40;56.80
32173;DHT22;18679;45.190;5.722;2022-09-28T14:14:51;22.60;56.70
32173;DHT22;18679;45.190;5.722;2022-09-28T14:24:32;22.90;55.90
32173;DHT22;18679;45.190;5.722;2022-09-28T14:31:07;22.80;56.10
32173;DHT22;18679;45.190;5.722;2022-09-28T14:34:30;22.80;56.20
32173;DHT22;18679;45.190;5.722;2022-09-28T14:37:37;22.80;56.30
32173;DHT22;18679;45.190;5.722;2022-09-28T14:41:00;22.70;56.20
32173;DHT22;18679;45.190;5.722;2022-09-28T14:44:14;22.60;56.20
32173;DHT22;18679;45.190;5.722;2022-09-28T14:54:52;22.10;57.00
32173;DHT22;18679;45.190;5.722;2022-09-28T14:57:57;21.90;57.10
32173;DHT22;18679;45.190;5.722;2022-09-28T15:01:06;21.70;57.50
32173;DHT22;18679;45.190;5.722;2022-09-28T15:04:13;21.50;57.80
32173;DHT22;18679;45.190;5.722;2022-09-28T15:10:37;21.30;58.50
32173;DHT22;18679;45.190;5.722;2022-09-28T15:13:39;21.10;59.00
32173;DHT22;18679;45.190;5.722;2022-09-28T15:16:41;20.90;59.60
32173;DHT22;18679;45.190;5.722;2022-09-28T15:23:33;20.40;61.80
32173;DHT22;18679;45.190;5.722;2022-09-28T15:26:34;20.00;63.40
32173;DHT22;18679;45.190;5.722;2022-09-28T15:29:35;19.60;63.80
32173;DHT22;18679;45.190;5.722;2022-09-28T15:32:37;19.30;63.30
32173;DHT22;18679;45.190;5.722;2022-09-28T15:35:38;19.00;62.70
32173;DHT22;18679;45.190;5.722;2022-09-28T15:38:41;18.70;63.40
32173;DHT22;18679;45.190;5.722;2022-09-28T15:41:42;18.50;63.60
32173;DHT22;18679;45.190;5.722;2022-09-28T15:48:27;18.20;64.50
32173;DHT22;18679;45.190;5.722;2022-09-28T15:51:43;18.10;64.80
32173;DHT22;18679;45.190;5.722;2022-09-28T15:54:45;18.10;65.00
32173;DHT22;18679;45.190;5.722;2022-09-28T15:57:47;18.10;65.10
32173;DHT22;18679;45.190;5.722;2022-09-28T16:00:50;18.10;65.10
32173;DHT22;18679;45.190;5.722;2022-09-28T16:07:51;18.20;64.90
32173;DHT22;18679;45.190;5.722;2022-09-28T16:10:57;18.30;64.60
32173;DHT22;18679;45.190;5.722;2022-09-28T16:14:16;18.40;64.40
32173;DHT22;18679;45.190;5.722;2022-09-28T16:17:28;18.50;64.20
32173;DHT22;18679;45.190;5.722;2022-09-28T16:20:35;18.60;64.00
32173;DHT22;18679;45.190;5.722;2022-09-28T16:23:37;18.70;64.10
32173;DHT22;18679;45.190;5.722;2022-09-28T16:26:39;18.80;63.70
32173;DHT22;18679;45.190;5.722;2022-09-28T16:29:40;18.80;63.70
32173;DHT22;18679;45.190;5.722;2022-09-28T16:32:50;18.80;63.80
32173;DHT22;18679;45.190;5.722;2022-09-28T16:35:51;18.80;63.70
32173;DHT22;18679;45.190;5.722;2022-09-28T16:38:52;18.80;63.50
32173;DHT22;18679;45.190;5.722;2022-09-28T16:41:58;18.90;63.50
32173;DHT22;18679;45.190;5.722;2022-09-28T16:45:03;18.90;63.50
32173;DHT22;18679;45.190;5.722;2022-09-28T16:48:05;18.90;63.50
32173;DHT22;18679;45.190;5.722;2022-09-28T16:51:06;19.00;63.50
32173;DHT22;18679;45.190;5.722;2022-09-28T16:54:14;19.00;63.50
32173;DHT22;18679;45.190;5.722;2022-09-28T16:57:34;19.00;63.60
32173;DHT22;18679;45.190;5.722;2022-09-28T17:00:35;19.00;63.50
32173;DHT22;18679;45.190;5.722;2022-09-28T17:03:36;19.00;63.50
32173;DHT22;18679;45.190;5.722;2022-09-28T17:06:37;19.00;64.40
32173;DHT22;18679;45.190;5.722;2022-09-28T17:09:38;19.00;63.70
32173;DHT22;18679;45.190;5.722;2022-09-28T17:12:39;18.90;63.70
32173;DHT22;18679;45.190;5.722;2022-09-28T17:15:41;18.90;63.90
32173;DHT22;18679;45.190;5.722;2022-09-28T17:18:43;18.90;63.90
32173;DHT22;18679;45.190;5.722;2022-09-28T17:21:45;18.90;63.90
32173;DHT22;18679;45.190;5.722;2022-09-28T17:24:46;18.90;64.00
32173;DHT22;18679;45.190;5.722;2022-09-28T17:27:48;18.90;64.10
32173;DHT22;18679;45.190;5.722;2022-09-28T17:30:50;18.80;64.10
32173;DHT22;18679;45.190;5.722;2022-09-28T17:33:51;18.80;64.10
32173;DHT22;18679;45.190;5.722;2022-09-28T17:36:54;18.80;64.20
32173;DHT22;18679;45.190;5.722;2022-09-28T17:39:55;18.80;64.30
32173;DHT22;18679;45.190;5.722;2022-09-28T17:42:56;18.70;64.40
32173;DHT22;18679;45.190;5.722;2022-09-28T17:45:58;18.80;64.50
32173;DHT22;18679;45.190;5.722;2022-09-28T17:49:01;18.70;64.50
32173;DHT22;18679;45.190;5.722;2022-09-28T17:52:02;18.80;64.70
32173;DHT22;18679;45.190;5.722;2022-09-28T17:55:05;18.80;64.80
32173;DHT22;18679;45.190;5.722;2022-09-28T17:58:20;18.80;64.80
32173;DHT22;18679;45.190;5.722;2022-09-28T18:01:22;18.80;64.90
32173;DHT22;18679;45.190;5.722;2022-09-28T18:04:23;18.80;64.80
32173;DHT22;18679;45.190;5.722;2022-09-28T18:07:24;18.80;64.80
32173;DHT22;18679;45.190;5.722;2022-09-28T18:10:28;18.80;64.70
32173;DHT22;18679;45.190;5.722;2022-09-28T18:13:30;18.80;64.70
32173;DHT22;18679;45.190;5.722;2022-09-28T18:16:32;18.80;64.70
32173;DHT22;18679;45.190;5.722;2022-09-28T18:19:33;18.80;64.90
32173;DHT22;18679;45.190;5.722;2022-09-28T18:22:34;18.80;65.00
32173;DHT22;18679;45.190;5.722;2022-09-28T18:25:39;18.80;65.00
32173;DHT22;18679;45.190;5.722;2022-09-28T18:28:40;18.80;64.90
32173;DHT22;18679;45.190;5.722;2022-09-28T18:31:44;18.90;64.80
32173;DHT22;18679;45.190;5.722;2022-09-28T18:34:45;18.80;64.80
32173;DHT22;18679;45.190;5.722;2022-09-28T18:37:47;18.80;64.80
32173;DHT22;18679;45.190;5.722;2022-09-28T18:40:49;18.80;64.80
32173;DHT22;18679;45.190;5.722;2022-09-28T18:43:50;18.80;64.80
32173;DHT22;18679;45.190;5.722;2022-09-28T18:46:51;18.80;64.90
32173;DHT22;18679;45.190;5.722;2022-09-28T18:49:52;18.70;65.00
32173;DHT22;18679;45.190;5.722;2022-09-28T18:52:53;18.70;65.10
32173;DHT22;18679;45.190;5.722;2022-09-28T18:56:13;18.70;65.20
32173;DHT22;18679;45.190;5.722;2022-09-28T18:59:14;18.70;65.20
32173;DHT22;18679;45.190;5.722;2022-09-28T19:02:15;18.70;65.20
32173;DHT22;18679;45.190;5.722;2022-09-28T19:05:16;18.70;65.20
32173;DHT22;18679;45.190;5.722;2022-09-28T19:08:18;18.70;65.30
32173;DHT22;18679;45.190;5.722;2022-09-28T19:11:19;18.60;65.50
32173;DHT22;18679;45.190;5.722;2022-09-28T19:14:21;18.60;65.60
32173;DHT22;18679;45.190;5.722;2022-09-28T19:17:22;18.60;65.70
32173;DHT22;18679;45.190;5.722;2022-09-28T19:20:23;18.60;65.90
32173;DHT22;18679;45.190;5.722;2022-09-28T19:23:24;18.50;65.90
32173;DHT22;18679;45.190;5.722;2022-09-28T19:26:26;18.50;66.00
32173;DHT22;18679;45.190;5.722;2022-09-28T19:29:27;18.50;66.20
32173;DHT22;18679;45.190;5.722;2022-09-28T19:32:28;18.50;66.20
32173;DHT22;18679;45.190;5.722;2022-09-28T19:35:29;18.50;66.20
32173;DHT22;18679;45.190;5.722;2022-09-28T19:38:33;18.50;66.20
32173;DHT22;18679;45.190;5.722;2022-09-28T19:41:34;18.50;66.20
32173;DHT22;18679;45.190;5.722;2022-09-28T19:44:43;18.40;66.20
32173;DHT22;18679;45.190;5.722;2022-09-28T19:47:47;18.40;66.40
32173;DHT22;18679;45.190;5.722;2022-09-28T19:51:03;18.30;66.50
32173;DHT22;18679;45.190;5.722;2022-09-28T19:54:05;18.30;66.60
32173;DHT22;18679;45.190;5.722;2022-09-28T19:57:06;18.30;66.60
32173;DHT22;18679;45.190;5.722;2022-09-28T20:00:08;18.30;66.70
32173;DHT22;18679;45.190;5.722;2022-09-28T20:03:11;18.30;66.70
32173;DHT22;18679;45.190;5.722;2022-09-28T20:06:12;18.30;66.80
32173;DHT22;18679;45.190;5.722;2022-09-28T20:09:13;18.30;66.80
32173;DHT22;18679;45.190;5.722;2022-09-28T20:12:14;18.30;66.80
32173;DHT22;18679;45.190;5.722;2022-09-28T20:15:15;18.30;66.70
32173;DHT22;18679;45.190;5.722;2022-09-28T20:18:16;18.30;66.70
32173;DHT22;18679;45.190;5.722;2022-09-28T20:21:19;18.30;66.70
32173;DHT22;18679;45.190;5.722;2022-09-28T20:24:21;18.20;66.50
32173;DHT22;18679;45.190;5.722;2022-09-28T20:27:22;18.30;66.50
32173;DHT22;18679;45.190;5.722;2022-09-28T20:30:26;18.30;66.40
32173;DHT22;18679;45.190;5.722;2022-09-28T20:33:27;18.30;66.50
32173;DHT22;18679;45.190;5.722;2022-09-28T20:36:28;18.30;66.60
32173;DHT22;18679;45.190;5.722;2022-09-28T20:39:31;18.30;66.60
32173;DHT22;18679;45.190;5.722;2022-09-28T20:42:32;18.20;66.80
32173;DHT22;18679;45.190;5.722;2022-09-28T20:45:34;18.20;66.80
32173;DHT22;18679;45.190;5.722;2022-09-28T20:48:37;18.20;66.90
32173;DHT22;18679;45.190;5.722;2022-09-28T20:51:38;18.20;66.80
32173;DHT22;18679;45.190;5.722;2022-09-28T20:54:39;18.20;66.90
32173;DHT22;18679;45.190;5.722;2022-09-28T20:57:40;18.20;67.00
32173;DHT22;18679;45.190;5.722;2022-09-28T21:00:41;18.20;67.10
32173;DHT22;18679;45.190;5.722;2022-09-28T21:03:50;18.20;67.10
32173;DHT22;18679;45.190;5.722;2022-09-28T21:06:52;18.20;67.30
32173;DHT22;18679;45.190;5.722;2022-09-28T21:09:53;18.10;67.30
32173;DHT22;18679;45.190;5.722;2022-09-28T21:12:54;18.10;67.50
32173;DHT22;18679;45.190;5.722;2022-09-28T21:16:00;18.10;67.80
32173;DHT22;18679;45.190;5.722;2022-09-28T21:19:02;18.00;67.90
32173;DHT22;18679;45.190;5.722;2022-09-28T21:22:03;18.00;68.10
32173;DHT22;18679;45.190;5.722;2022-09-28T21:25:04;17.90;68.10
32173;DHT22;18679;45.190;5.722;2022-09-28T21:28:06;18.00;68.10
32173;DHT22;18679;45.190;5.722;2022-09-28T21:31:09;18.00;68.10
32173;DHT22;18679;45.190;5.722;2022-09-28T21:34:15;18.00;68.00
32173;DHT22;18679;45.190;5.722;2022-09-28T21:37:18;18.00;68.00
32173;DHT22;18679;45.190;5.722;2022-09-28T21:40:20;18.00;67.90
32173;DHT22;18679;45.190;5.722;2022-09-28T21:43:26;18.00;67.90
32173;DHT22;18679;45.190;5.722;2022-09-28T21:46:27;18.00;67.90
32173;DHT22;18679;45.190;5.722;2022-09-28T21:49:33;18.00;67.80
32173;DHT22;18679;45.190;5.722;2022-09-28T21:52:35;18.00;67.90
32173;DHT22;18679;45.190;5.722;2022-09-28T21:55:36;17.90;68.00
32173;DHT22;18679;45.190;5.722;2022-09-28T21:58:37;18.00;68.00
32173;DHT22;18679;45.190;5.722;2022-09-28T22:01:39;18.00;68.10
32173;DHT22;18679;45.190;5.722;2022-09-28T22:04:42;17.90;68.20
32173;DHT22;18679;45.190;5.722;2022-09-28T22:07:43;17.90;68.10
32173;DHT22;18679;45.190;5.722;2022-09-28T22:10:44;17.90;68.10